»·PEaware :: SWA1337 KLAX-KLAS

SWA1337 :: KLAX-KLAS

FLIGHT INFORMATION

Flight Status: Arrived
Operator:
Southwest Airlines
More flights by this operator :: More flights under this callsign
Pilot: Adam F. (21125)
Aircraft: BOEING 737-800
(B738)
More flights by this aircraft type
Origin: KLAX Los Angeles Intl
United States
Destination: KLAS McCarran Intl
United States
More flights between these airports :: More routes between these airports
Route: ORCKA3 MISEN KEPEC6
File this flight plan on PilotEdge
Remarks: Fairly New @ IFR
Altitude:
(Current/Filed)
23,000ft
Speed:
(Current/Filed)
325kts
Departed: 27-Nov-18 08:21 PM
Arrived: 27-Nov-18 09:52 PM
Distance/Time
Traveled:
205nm/1:30
Distance/Time
To Go:
Arrived

Flight Plot

Page will automatically refresh every two minutes.

Flight plan parsing failed; only flown route is shown


Map Options




Map Legend


Flown Route
Filed Route
Departure Airport
Arrival Airport
Navaid (VOR, NDB)
Fix

Horizontal Profiles

Position Reports

Time Latitude Longitude Heading Altitude Ground
Speed
27-Nov-18 20:03 33.947888 -118.401106 183 116ft 0kts
27-Nov-18 20:04 33.947888 -118.401106 183 116ft 0kts
27-Nov-18 20:05 33.947888 -118.401106 183 116ft 0kts
27-Nov-18 20:06 33.947888 -118.401106 183 116ft 0kts
27-Nov-18 20:07 33.947888 -118.401106 183 116ft 0kts
27-Nov-18 20:08 33.947888 -118.401106 183 116ft 0kts
27-Nov-18 20:09 33.947888 -118.401106 183 116ft 0kts
27-Nov-18 20:10 33.947888 -118.401106 183 116ft 0kts
27-Nov-18 20:11 33.947888 -118.401106 183 116ft 0kts
27-Nov-18 20:12 33.947888 -118.401106 183 116ft 0kts
27-Nov-18 20:13 33.947888 -118.401106 183 116ft 0kts
27-Nov-18 20:14 33.947888 -118.401106 183 116ft 0kts
27-Nov-18 20:15 33.947888 -118.401106 183 116ft 0kts
27-Nov-18 20:16 33.947888 -118.401106 183 116ft 0kts
27-Nov-18 20:17 33.947907 -118.401105 183 116ft 2kts
27-Nov-18 20:18 33.948377 -118.401261 99 115ft 2kts
27-Nov-18 20:19 33.948373 -118.401397 83 115ft 0kts
27-Nov-18 20:20 33.948373 -118.401397 83 115ft 0kts
27-Nov-18 20:21 33.948822 -118.401008 348 115ft 7kts
27-Nov-18 20:22 33.949240 -118.401453 308 115ft 0kts
27-Nov-18 20:23 33.950141 -118.402111 272 116ft 11kts
27-Nov-18 20:24 33.946648 -118.434003 261 789ft 195kts
27-Nov-18 20:25 33.933666 -118.512691 253 4128ft 253kts
27-Nov-18 20:26 33.901277 -118.584974 216 6974ft 257kts
27-Nov-18 20:27 33.835824 -118.574235 136 10039ft 267kts
27-Nov-18 20:28 33.822641 -118.485666 65 10101ft 315kts
27-Nov-18 20:29 33.883483 -118.427007 18 9680ft 275kts
27-Nov-18 20:30 33.954201 -118.391358 37 11719ft 295kts
27-Nov-18 20:31 34.001318 -118.312888 52 13759ft 312kts
27-Nov-18 20:41 33.947888 -118.401106 183 116ft 0kts
27-Nov-18 20:42 33.947888 -118.401106 183 116ft 0kts
27-Nov-18 20:43 33.947888 -118.401106 183 116ft 0kts
27-Nov-18 20:44 33.947888 -118.401106 183 116ft 0kts
27-Nov-18 20:45 33.947888 -118.401106 183 116ft 0kts
27-Nov-18 20:46 33.947888 -118.401106 183 116ft 0kts
27-Nov-18 20:47 33.947888 -118.401106 183 116ft 0kts
27-Nov-18 20:48 33.947888 -118.401106 183 116ft 0kts
27-Nov-18 20:49 33.947888 -118.401106 183 116ft 0kts
27-Nov-18 20:50 33.947888 -118.401106 183 116ft 0kts
27-Nov-18 20:51 33.947888 -118.401106 183 116ft 0kts
27-Nov-18 20:52 33.947888 -118.401106 183 116ft 0kts
27-Nov-18 20:53 33.948202 -118.401079 181 115ft 2kts
27-Nov-18 20:54 33.948374 -118.401393 83 115ft 0kts
27-Nov-18 20:55 33.948374 -118.401393 83 115ft 0kts
27-Nov-18 20:56 33.948954 -118.401085 324 115ft 7kts
27-Nov-18 20:57 33.949242 -118.401464 310 115ft 0kts
27-Nov-18 20:58 33.950062 -118.402772 262 116ft 18kts
27-Nov-18 20:59 33.945076 -118.448956 262 1519ft 190kts
27-Nov-18 21:00 33.935277 -118.513408 262 4160ft 210kts
27-Nov-18 21:01 33.925039 -118.587896 246 6672ft 253kts
27-Nov-18 21:02 33.861245 -118.602155 138 8852ft 278kts
27-Nov-18 21:03 33.859227 -118.519307 43 11851ft 281kts
27-Nov-18 21:04 33.918165 -118.454845 39 14147ft 309kts
27-Nov-18 21:05 33.968131 -118.372236 57 16840ft 340kts
27-Nov-18 21:06 34.019216 -118.280293 49 19121ft 363kts
27-Nov-18 21:07 34.076821 -118.178988 48 21470ft 383kts
27-Nov-18 21:08 34.137129 -118.072514 48 23071ft 403kts
27-Nov-18 21:09 34.199949 -117.960888 48 23092ft 403kts
27-Nov-18 21:10 34.262672 -117.849109 48 23101ft 403kts
27-Nov-18 21:11 34.325232 -117.737284 48 23100ft 403kts
27-Nov-18 21:12 34.391420 -117.623309 47 23115ft 438kts
27-Nov-18 21:13 34.463129 -117.503331 47 23106ft 441kts
27-Nov-18 21:14 34.534736 -117.382934 47 23106ft 441kts
27-Nov-18 21:15 34.606019 -117.262673 47 23097ft 442kts
27-Nov-18 21:16 34.677358 -117.141858 47 23097ft 442kts
27-Nov-18 21:17 34.748456 -117.020981 48 23079ft 437kts
27-Nov-18 21:18 34.818395 -116.901683 48 23056ft 432kts
27-Nov-18 21:19 34.888059 -116.782504 48 23053ft 436kts
27-Nov-18 21:20 34.957516 -116.661492 48 23366ft 436kts
27-Nov-18 21:21 35.027378 -116.537589 48 24056ft 451kts
27-Nov-18 21:22 35.098101 -116.411407 50 24082ft 452kts
27-Nov-18 21:23 35.182243 -116.304184 38 24081ft 442kts
27-Nov-18 21:24 35.268065 -116.196514 38 24081ft 442kts
27-Nov-18 21:25 35.353756 -116.088573 38 23210ft 439kts
27-Nov-18 21:26 35.432778 -115.988298 38 21078ft 380kts
27-Nov-18 21:27 35.502281 -115.900182 39 18859ft 350kts
27-Nov-18 21:28 35.568812 -115.815805 40 16662ft 338kts
27-Nov-18 21:29 35.632631 -115.734607 41 14472ft 325kts
27-Nov-18 21:30 35.694021 -115.656306 41 13051ft 315kts
27-Nov-18 21:31 35.759051 -115.585943 18 12975ft 309kts
27-Nov-18 21:32 35.840873 -115.571424 358 12900ft 298kts
27-Nov-18 21:33 35.923741 -115.565419 6 12880ft 302kts
27-Nov-18 21:34 35.989597 -115.501827 61 12232ft 318kts
27-Nov-18 21:35 36.022633 -115.401521 66 11352ft 310kts
27-Nov-18 21:36 36.026102 -115.300483 93 10391ft 295kts
27-Nov-18 21:37 36.018826 -115.203175 97 9021ft 275kts
27-Nov-18 21:38 36.012421 -115.110192 97 8836ft 283kts
27-Nov-18 21:39 36.006657 -115.021032 90 8013ft 246kts
27-Nov-18 21:40 36.001640 -114.935657 91 8007ft 251kts
27-Nov-18 21:41 35.996482 -114.849741 91 8008ft 251kts
27-Nov-18 21:42 35.990998 -114.763819 91 8008ft 251kts
27-Nov-18 21:43 35.985305 -114.677919 91 8008ft 251kts
27-Nov-18 21:44 36.009299 -114.613340 28 8009ft 188kts
27-Nov-18 21:45 36.055983 -114.611442 317 7727ft 180kts
27-Nov-18 21:46 36.069287 -114.670547 277 6145ft 188kts
27-Nov-18 21:47 36.073798 -114.734598 276 4902ft 177kts
27-Nov-18 21:48 36.073580 -114.795738 273 4908ft 177kts
27-Nov-18 21:49 36.073613 -114.856177 273 4910ft 176kts
27-Nov-18 21:50 36.073665 -114.916426 272 4911ft 175kts
27-Nov-18 21:51 36.073662 -114.976229 272 4514ft 168kts
27-Nov-18 21:52 36.073780 -115.030102 273 3815ft 146kts
27-Nov-18 21:53 36.072921 -115.079999 275 2895ft 144kts
27-Nov-18 21:54 36.073578 -115.125726 271 2126ft 132kts
27-Nov-18 21:55 36.074019 -115.148830 294 2114ft 18kts
27-Nov-18 21:56 36.074800 -115.150652 306 2120ft 8kts
27-Nov-18 21:57 36.077227 -115.152463 335 2123ft 1kts
27-Nov-18 21:58 36.078955 -115.148883 83 2105ft 28kts
27-Nov-18 21:59 36.080547 -115.145651 271 2091ft 3kts

Navigation Log

Ident Type
Flight plan parsing failed, navigation log unavailable